createdAt,value
2022-10-19T00:00:33.363Z,46.25
2022-10-19T00:01:33.366Z,45.12
2022-10-19T00:02:33.421Z,45.60
2022-10-19T00:03:33.351Z,45.28
2022-10-19T00:04:33.336Z,45.44
2022-10-19T00:05:33.401Z,45.60
2022-10-19T00:06:33.334Z,44.96
2022-10-19T00:07:33.549Z,45.12
2022-10-19T00:08:33.323Z,45.28
2022-10-19T00:09:33.331Z,45.12
2022-10-19T00:10:33.367Z,45.92
2022-10-19T00:11:33.331Z,45.76
2022-10-19T00:12:33.307Z,45.92
2022-10-19T00:13:33.285Z,45.60
2022-10-19T00:14:33.300Z,45.28
2022-10-19T00:15:33.284Z,45.12
2022-10-19T00:16:33.308Z,45.28
2022-10-19T00:17:33.540Z,45.44
2022-10-19T00:18:33.273Z,45.44
2022-10-19T00:19:33.255Z,45.44
2022-10-19T00:20:33.259Z,45.28
2022-10-19T00:21:33.295Z,45.60
2022-10-19T00:22:33.324Z,45.28
2022-10-19T00:23:33.235Z,45.44
2022-10-19T00:24:33.272Z,45.28
2022-10-19T00:25:33.242Z,45.28
2022-10-19T00:26:33.332Z,45.44
2022-10-19T00:27:33.233Z,45.60
2022-10-19T00:28:33.326Z,45.92
2022-10-19T00:29:33.214Z,45.60
2022-10-19T00:30:33.202Z,45.12
2022-10-19T00:31:33.203Z,45.28
2022-10-19T00:32:33.532Z,45.44
2022-10-19T00:33:33.210Z,45.76
2022-10-19T00:34:33.189Z,45.76
2022-10-19T00:35:33.223Z,45.28
2022-10-19T00:36:33.259Z,45.28
2022-10-19T00:37:33.201Z,45.28
2022-10-19T00:38:33.175Z,45.44
2022-10-19T00:39:33.180Z,44.47
2022-10-19T00:40:33.164Z,45.60
2022-10-19T00:41:33.169Z,45.12
2022-10-19T00:42:33.426Z,45.12
2022-10-19T00:43:33.162Z,44.96
2022-10-19T00:44:33.192Z,44.96
2022-10-19T00:45:33.132Z,44.96
2022-10-19T00:46:33.123Z,44.79
2022-10-19T00:47:33.116Z,45.12
2022-10-19T00:48:33.143Z,44.96
2022-10-19T00:49:33.140Z,45.28
2022-10-19T00:50:33.113Z,45.28
2022-10-19T00:51:33.147Z,45.28
2022-10-19T00:52:33.423Z,45.12
2022-10-19T00:53:33.094Z,45.12
2022-10-19T00:54:33.121Z,45.28
2022-10-19T00:55:33.129Z,45.12
2022-10-19T00:56:33.077Z,45.44
2022-10-19T00:57:33.074Z,45.28
2022-10-19T00:58:33.078Z,45.28
2022-10-19T00:59:33.078Z,44.96
2022-10-19T01:00:33.102Z,44.96
2022-10-19T01:01:33.147Z,45.12
2022-10-19T01:02:33.265Z,45.12
2022-10-19T01:03:33.072Z,45.12
2022-10-19T01:04:33.056Z,45.28
2022-10-19T01:05:33.067Z,45.44
2022-10-19T01:06:33.049Z,45.28
2022-10-19T01:07:33.381Z,45.12
2022-10-19T01:08:33.043Z,45.60
2022-10-19T01:09:33.073Z,45.44
2022-10-19T01:10:33.043Z,45.12
2022-10-19T01:11:33.053Z,44.79
2022-10-19T01:12:33.041Z,44.96
2022-10-19T01:13:33.021Z,44.96
2022-10-19T01:14:33.005Z,44.96
2022-10-19T01:15:32.996Z,44.79
2022-10-19T01:16:33.051Z,44.79
2022-10-19T01:17:33.262Z,44.63
2022-10-19T01:18:32.989Z,44.96
2022-10-19T01:19:32.978Z,44.96
2022-10-19T01:20:32.970Z,45.28
2022-10-19T01:21:32.996Z,44.79
2022-10-19T01:22:32.987Z,45.12
2022-10-19T01:23:32.987Z,44.79
2022-10-19T01:24:35.833Z,44.96
2022-10-19T01:25:33.973Z,45.12
2022-10-19T01:26:32.972Z,45.12
2022-10-19T01:27:33.190Z,45.28
2022-10-19T01:28:33.021Z,45.28
2022-10-19T01:29:32.944Z,45.44
2022-10-19T01:30:32.923Z,45.44
2022-10-19T01:31:32.915Z,45.12
2022-10-19T01:32:32.937Z,45.60
2022-10-19T01:33:32.951Z,45.28
2022-10-19T01:34:32.919Z,45.28
2022-10-19T01:35:32.938Z,45.44
2022-10-19T01:36:32.944Z,45.44
2022-10-19T01:37:33.384Z,45.44
2022-10-19T01:38:32.949Z,45.60
2022-10-19T01:39:32.895Z,45.28
2022-10-19T01:40:32.885Z,45.28
2022-10-19T01:41:32.870Z,45.28
2022-10-19T01:42:32.895Z,45.44
2022-10-19T01:43:32.879Z,45.44
2022-10-19T01:44:32.859Z,45.60
2022-10-19T01:45:32.887Z,45.60
2022-10-19T01:46:32.843Z,45.28
2022-10-19T01:47:33.073Z,45.60
2022-10-19T01:48:32.869Z,45.28
2022-10-19T01:49:32.864Z,45.12
2022-10-19T01:50:32.831Z,45.28
2022-10-19T01:51:32.824Z,45.28
2022-10-19T01:52:33.157Z,45.12
2022-10-19T01:53:32.853Z,44.79
2022-10-19T01:54:32.861Z,44.96
2022-10-19T01:55:32.821Z,44.63
2022-10-19T01:56:32.823Z,44.79
2022-10-19T01:57:33.799Z,44.96
2022-10-19T01:58:32.792Z,45.12
2022-10-19T01:59:32.811Z,44.79
2022-10-19T02:00:32.804Z,45.12
2022-10-19T02:01:32.777Z,45.12
2022-10-19T02:02:33.085Z,44.79
2022-10-19T02:03:32.785Z,44.79
2022-10-19T02:04:32.791Z,44.63
2022-10-19T02:05:32.747Z,44.63
2022-10-19T02:06:32.776Z,44.96
2022-10-19T02:07:32.743Z,44.96
2022-10-19T02:08:32.730Z,44.79
2022-10-19T02:09:32.752Z,44.96
2022-10-19T02:10:32.731Z,44.79
2022-10-19T02:11:32.748Z,45.28
2022-10-19T02:12:33.008Z,45.28
2022-10-19T02:13:32.704Z,45.12
2022-10-19T02:14:32.725Z,44.63
2022-10-19T02:15:32.718Z,44.96
2022-10-19T02:16:32.715Z,45.12
2022-10-19T02:17:32.753Z,44.79
2022-10-19T02:18:32.681Z,45.12
2022-10-19T02:19:32.706Z,45.76
2022-10-19T02:20:32.674Z,44.96
2022-10-19T02:21:32.718Z,44.47
2022-10-19T02:22:33.010Z,44.15
2022-10-19T02:23:32.665Z,44.47
2022-10-19T02:24:32.675Z,44.31
2022-10-19T02:25:32.658Z,44.63
2022-10-19T02:26:32.647Z,44.47
2022-10-19T02:27:32.664Z,56.56
2022-10-19T02:28:32.637Z,57.20
2022-10-19T02:29:32.653Z,56.07
2022-10-19T02:30:32.626Z,56.24
2022-10-19T02:31:32.650Z,45.76
2022-10-19T02:32:32.813Z,46.41
2022-10-19T02:33:32.661Z,45.28
2022-10-19T02:34:32.612Z,44.63
2022-10-19T02:35:32.614Z,44.79
2022-10-19T02:36:32.615Z,44.79
2022-10-19T02:37:32.636Z,44.63
2022-10-19T02:38:32.589Z,44.47
2022-10-19T02:39:32.588Z,44.79
2022-10-19T02:40:32.614Z,44.96
2022-10-19T02:41:32.577Z,44.79
2022-10-19T02:42:33.153Z,44.96
2022-10-19T02:43:32.565Z,45.12
2022-10-19T02:44:32.567Z,45.28
2022-10-19T02:45:32.579Z,45.28
2022-10-19T02:46:32.627Z,45.28
2022-10-19T02:47:32.858Z,45.28
2022-10-19T02:48:32.534Z,45.12
2022-10-19T02:49:32.563Z,45.76
2022-10-19T02:50:32.537Z,45.12
2022-10-19T02:51:32.583Z,44.96
2022-10-19T02:52:32.525Z,45.44
2022-10-19T02:53:32.543Z,45.44
2022-10-19T02:54:32.512Z,45.28
2022-10-19T02:55:32.537Z,45.28
2022-10-19T02:56:32.531Z,45.44
2022-10-19T02:57:32.956Z,44.96
2022-10-19T02:58:32.491Z,45.12
2022-10-19T02:59:32.476Z,45.12
2022-10-19T03:00:32.491Z,44.79
2022-10-19T03:01:32.499Z,45.12
2022-10-19T03:02:32.499Z,46.08
2022-10-19T03:03:32.484Z,45.28
2022-10-19T03:04:32.486Z,45.28
2022-10-19T03:05:32.475Z,45.28
2022-10-19T03:06:32.461Z,44.79
2022-10-19T03:07:32.811Z,44.47
2022-10-19T03:08:32.460Z,45.12
2022-10-19T03:09:32.457Z,45.28
2022-10-19T03:10:32.436Z,45.28
2022-10-19T03:11:32.430Z,44.79
2022-10-19T03:12:32.458Z,44.96
2022-10-19T03:13:32.413Z,45.12
2022-10-19T03:14:32.427Z,45.12
2022-10-19T03:15:32.432Z,44.31
2022-10-19T03:16:32.427Z,44.79
2022-10-19T03:17:32.604Z,45.12
2022-10-19T03:18:32.404Z,44.15
2022-10-19T03:19:32.445Z,44.31
2022-10-19T03:20:32.410Z,44.79
2022-10-19T03:21:32.405Z,45.12
2022-10-19T03:22:32.406Z,44.79
2022-10-19T03:23:32.407Z,46.73
2022-10-19T03:24:32.367Z,47.70
2022-10-19T03:25:32.372Z,45.60
2022-10-19T03:26:32.354Z,45.28
2022-10-19T03:27:32.709Z,45.44
2022-10-19T03:28:32.395Z,45.28
2022-10-19T03:29:32.438Z,45.76
2022-10-19T03:30:32.362Z,45.92
2022-10-19T03:31:32.369Z,45.12
2022-10-19T03:32:32.389Z,45.28
2022-10-19T03:33:32.362Z,45.44
2022-10-19T03:34:32.347Z,45.60
2022-10-19T03:35:32.347Z,45.12
2022-10-19T03:36:32.348Z,45.76
2022-10-19T03:37:32.584Z,45.92
2022-10-19T03:38:32.335Z,45.12
2022-10-19T03:39:32.323Z,45.92
2022-10-19T03:40:32.401Z,45.28
2022-10-19T03:41:32.286Z,45.76
2022-10-19T03:42:32.331Z,45.92
2022-10-19T03:43:32.296Z,45.92
2022-10-19T03:44:32.289Z,45.76
2022-10-19T03:45:32.286Z,45.28
2022-10-19T03:46:32.277Z,45.60
2022-10-19T03:47:32.508Z,45.76
2022-10-19T03:48:32.267Z,45.76
2022-10-19T03:49:34.581Z,45.28
2022-10-19T03:50:32.266Z,45.44
2022-10-19T03:51:32.244Z,45.12
2022-10-19T03:52:32.415Z,45.12
2022-10-19T03:53:33.225Z,46.57
2022-10-19T03:54:32.326Z,45.28
2022-10-19T03:55:32.236Z,45.76
2022-10-19T03:56:32.253Z,45.60
2022-10-19T03:57:32.659Z,46.25
2022-10-19T03:58:32.217Z,45.44
2022-10-19T03:59:32.242Z,44.96
2022-10-19T04:00:32.279Z,45.12
2022-10-19T04:01:32.241Z,44.96
2022-10-19T04:02:32.207Z,44.79
2022-10-19T04:03:32.215Z,45.60
2022-10-19T04:04:32.223Z,45.28
2022-10-19T04:05:32.215Z,45.44
2022-10-19T04:06:32.205Z,46.57
2022-10-19T04:07:32.551Z,45.76
2022-10-19T04:08:32.172Z,45.92
2022-10-19T04:09:32.200Z,46.25
2022-10-19T04:10:32.172Z,46.41
2022-10-19T04:11:32.160Z,47.05
2022-10-19T04:12:32.165Z,45.28
2022-10-19T04:13:32.194Z,45.12
2022-10-19T04:14:39.233Z,45.44
2022-10-19T04:15:34.151Z,46.73
2022-10-19T04:16:32.148Z,45.60
2022-10-19T04:17:32.405Z,46.25
2022-10-19T04:18:32.143Z,46.08
2022-10-19T04:19:32.149Z,46.25
2022-10-19T04:20:32.104Z,46.25
2022-10-19T04:21:32.154Z,47.21
2022-10-19T04:22:32.099Z,47.70
2022-10-19T04:23:32.098Z,45.60
2022-10-19T04:24:32.120Z,46.89
2022-10-19T04:25:32.092Z,47.21
2022-10-19T04:26:32.104Z,46.41
2022-10-19T04:27:32.366Z,45.60
2022-10-19T04:28:32.182Z,46.73
2022-10-19T04:29:32.115Z,46.73
2022-10-19T04:30:32.090Z,45.60
2022-10-19T04:31:32.104Z,45.92
2022-10-19T04:32:32.116Z,45.60
2022-10-19T04:33:32.133Z,48.02
2022-10-19T04:34:34.220Z,45.60
2022-10-19T04:35:32.034Z,47.21
2022-10-19T04:36:32.090Z,46.73
2022-10-19T04:37:32.469Z,47.05
2022-10-19T04:38:32.064Z,46.25
2022-10-19T04:39:32.091Z,46.25
2022-10-19T04:40:32.029Z,46.25
2022-10-19T04:41:32.056Z,45.44
2022-10-19T04:42:32.051Z,46.41
2022-10-19T04:43:32.008Z,46.73
2022-10-19T04:44:31.994Z,46.08
2022-10-19T04:45:32.017Z,47.70
2022-10-19T04:46:31.995Z,47.05
2022-10-19T04:47:32.410Z,47.21
2022-10-19T04:48:31.976Z,46.89
2022-10-19T04:49:31.998Z,47.53
2022-10-19T04:50:31.975Z,46.57
2022-10-19T04:51:32.002Z,46.08
2022-10-19T04:52:32.032Z,47.05
2022-10-19T04:53:31.990Z,47.21
2022-10-19T04:54:32.037Z,46.25
2022-10-19T04:55:31.973Z,45.92
2022-10-19T04:56:31.958Z,46.25
2022-10-19T04:57:32.233Z,46.25
2022-10-19T04:58:31.938Z,46.25
2022-10-19T04:59:31.943Z,46.41
2022-10-19T05:00:31.935Z,47.37
2022-10-19T05:01:31.937Z,48.34
2022-10-19T05:02:31.973Z,53.50
2022-10-19T05:03:31.947Z,53.82
2022-10-19T05:04:31.931Z,48.50
2022-10-19T05:05:31.924Z,48.50
2022-10-19T05:06:31.914Z,46.73
2022-10-19T05:07:32.221Z,46.57
2022-10-19T05:08:31.907Z,46.25
2022-10-19T05:09:31.909Z,46.73
2022-10-19T05:10:31.883Z,49.31
2022-10-19T05:11:31.875Z,47.21
2022-10-19T05:12:31.908Z,46.41
2022-10-19T05:13:31.861Z,46.73
2022-10-19T05:14:31.870Z,48.34
2022-10-19T05:15:31.898Z,48.98
2022-10-19T05:16:31.907Z,47.70
2022-10-19T05:17:32.238Z,49.31
2022-10-19T05:18:31.859Z,51.56
2022-10-19T05:19:31.828Z,46.89
2022-10-19T05:20:31.852Z,50.27
2022-10-19T05:21:31.845Z,49.63
2022-10-19T05:22:31.857Z,48.18
2022-10-19T05:24:31.818Z,50.11
2022-10-19T05:25:31.824Z,47.37
2022-10-19T05:26:31.838Z,48.66
2022-10-19T05:27:32.176Z,50.76
2022-10-19T05:28:31.888Z,52.05
2022-10-19T05:29:31.808Z,48.34
2022-10-19T05:30:31.787Z,47.05
2022-10-19T05:31:31.808Z,49.79
2022-10-19T05:32:31.785Z,51.24
2022-10-19T05:33:31.781Z,49.15
2022-10-19T05:34:31.808Z,46.89
2022-10-19T05:35:31.746Z,49.31
2022-10-19T05:36:31.754Z,47.37
2022-10-19T05:37:32.071Z,46.08
2022-10-19T05:38:31.739Z,47.37
2022-10-19T05:39:31.817Z,49.47
2022-10-19T05:40:31.743Z,47.70
2022-10-19T05:41:31.724Z,47.53
2022-10-19T05:42:31.730Z,47.70
2022-10-19T05:43:31.719Z,46.73
2022-10-19T05:44:31.811Z,46.41
2022-10-19T05:45:31.742Z,48.18
2022-10-19T05:46:31.758Z,48.82
2022-10-19T05:47:31.880Z,51.88
2022-10-19T05:48:31.703Z,47.05
2022-10-19T05:49:31.794Z,48.34
2022-10-19T05:50:31.701Z,47.37
2022-10-19T05:51:31.695Z,51.24
2022-10-19T05:52:31.722Z,48.66
2022-10-19T05:53:31.737Z,47.37
2022-10-19T05:54:31.657Z,48.66
2022-10-19T05:55:32.699Z,47.86
2022-10-19T05:56:31.692Z,49.79
2022-10-19T05:57:31.967Z,48.18
2022-10-19T05:58:31.678Z,47.05
2022-10-19T05:59:31.662Z,47.70
2022-10-19T06:00:31.647Z,49.31
2022-10-19T06:01:31.687Z,47.53
2022-10-19T06:02:31.647Z,48.02
2022-10-19T06:03:31.641Z,47.70
2022-10-19T06:04:31.701Z,47.53
2022-10-19T06:05:31.622Z,48.02
2022-10-19T06:06:31.655Z,50.76
2022-10-19T06:07:31.766Z,47.21
2022-10-19T06:08:31.628Z,45.76
2022-10-19T06:09:31.594Z,48.82
2022-10-19T06:10:31.600Z,47.86
2022-10-19T06:11:31.594Z,47.53
2022-10-19T06:12:31.584Z,47.37
2022-10-19T06:13:31.707Z,49.47
2022-10-19T06:14:31.603Z,46.57
2022-10-19T06:15:31.638Z,46.25
2022-10-19T06:16:31.571Z,46.73
2022-10-19T06:17:31.814Z,45.28
2022-10-19T06:18:31.561Z,46.25
2022-10-19T06:19:31.555Z,47.05
2022-10-19T06:20:31.555Z,46.08
2022-10-19T06:21:31.553Z,47.21
2022-10-19T06:22:31.602Z,47.05
2022-10-19T06:23:31.605Z,48.18
2022-10-19T06:24:31.567Z,48.18
2022-10-19T06:25:31.543Z,46.73
2022-10-19T06:26:31.513Z,46.41
2022-10-19T06:27:31.858Z,47.70
2022-10-19T06:28:31.549Z,48.18
2022-10-19T06:29:31.647Z,46.89
2022-10-19T06:30:31.579Z,45.76
2022-10-19T06:31:31.610Z,46.57
2022-10-19T06:32:31.654Z,47.05
2022-10-19T06:33:31.589Z,47.53
2022-10-19T06:34:31.710Z,47.37
2022-10-19T06:35:31.488Z,48.02
2022-10-19T06:36:31.517Z,51.08
2022-10-19T06:37:31.636Z,49.47
2022-10-19T06:38:31.510Z,48.34
2022-10-19T06:39:31.491Z,46.89
2022-10-19T06:40:31.552Z,45.92
2022-10-19T06:41:31.492Z,46.08
2022-10-19T06:42:31.570Z,46.08
2022-10-19T06:43:31.487Z,47.37
2022-10-19T06:44:31.442Z,46.73
2022-10-19T06:45:35.756Z,47.05
2022-10-19T06:46:32.443Z,46.89
2022-10-19T06:47:31.563Z,45.76
2022-10-19T06:48:31.435Z,48.98
2022-10-19T06:49:31.473Z,46.08
2022-10-19T06:50:31.412Z,46.08
2022-10-19T06:51:31.438Z,45.76
2022-10-19T06:52:31.591Z,45.44
2022-10-19T06:53:31.393Z,44.96
2022-10-19T06:54:31.390Z,45.44
2022-10-19T06:55:31.379Z,44.79
2022-10-19T06:56:31.383Z,45.12
2022-10-19T06:57:31.612Z,45.28
2022-10-19T06:58:31.401Z,45.60
2022-10-19T06:59:31.401Z,45.28
2022-10-19T07:00:32.387Z,46.41
2022-10-19T07:01:31.387Z,46.73
2022-10-19T07:02:31.387Z,47.21
2022-10-19T07:03:31.440Z,45.28
2022-10-19T07:04:31.366Z,47.05
2022-10-19T07:05:31.364Z,46.08
2022-10-19T07:06:31.338Z,45.28
2022-10-19T07:07:31.549Z,45.28
2022-10-19T07:08:31.353Z,46.08
2022-10-19T07:09:31.323Z,45.28
2022-10-19T07:10:31.601Z,47.21
2022-10-19T07:11:31.422Z,45.92
2022-10-19T07:12:31.305Z,45.76
2022-10-19T07:13:31.291Z,46.08
2022-10-19T07:14:31.338Z,44.96
2022-10-19T07:15:31.291Z,46.08
2022-10-19T07:16:31.286Z,45.60
2022-10-19T07:17:31.656Z,45.44
2022-10-19T07:18:31.292Z,45.28
2022-10-19T07:19:31.306Z,45.28
2022-10-19T07:20:31.277Z,46.08
2022-10-19T07:21:31.276Z,45.76
2022-10-19T07:22:31.301Z,46.57
2022-10-19T07:23:31.326Z,45.60
2022-10-19T07:24:31.288Z,45.76
2022-10-19T07:25:31.275Z,45.12
2022-10-19T07:26:31.266Z,46.08
2022-10-19T07:27:36.688Z,49.15
2022-10-19T07:28:33.279Z,45.60
2022-10-19T07:29:31.245Z,45.60
2022-10-19T07:30:31.260Z,45.76
2022-10-19T07:31:31.258Z,47.05
2022-10-19T07:32:31.211Z,47.53
2022-10-19T07:33:31.271Z,46.25
2022-10-19T07:34:31.210Z,45.76
2022-10-19T07:35:31.192Z,45.44
2022-10-19T07:36:31.196Z,46.73
2022-10-19T07:37:31.302Z,47.05
2022-10-19T07:38:31.191Z,46.08
2022-10-19T07:39:31.184Z,45.76
2022-10-19T07:40:31.200Z,47.21
2022-10-19T07:41:31.190Z,46.08
2022-10-19T07:42:31.214Z,49.47
2022-10-19T07:43:31.199Z,48.34
2022-10-19T07:44:31.179Z,48.50
2022-10-19T07:45:31.174Z,47.05
2022-10-19T07:46:31.154Z,48.50
2022-10-19T07:47:31.234Z,47.53
2022-10-19T07:48:31.149Z,47.53
2022-10-19T07:49:31.171Z,47.05
2022-10-19T07:50:31.136Z,47.05
2022-10-19T07:51:31.186Z,47.21
2022-10-19T07:52:33.129Z,48.02
2022-10-19T07:53:32.138Z,46.25
2022-10-19T07:54:31.129Z,48.02
2022-10-19T07:55:31.121Z,46.41
2022-10-19T07:56:31.152Z,46.25
2022-10-19T07:57:31.107Z,46.08
2022-10-19T07:58:31.114Z,46.73
2022-10-19T07:59:31.150Z,46.89
2022-10-19T08:00:31.146Z,47.86
2022-10-19T08:01:31.091Z,45.76
2022-10-19T08:02:39.596Z,47.05
2022-10-19T08:04:31.305Z,46.73
2022-10-19T08:05:06.248Z,49.47
2022-10-19T08:05:33.057Z,45.28
2022-10-19T08:06:31.117Z,46.57
2022-10-19T08:07:31.054Z,47.53
2022-10-19T08:08:31.079Z,45.12
2022-10-19T08:09:52.281Z,46.41
2022-10-19T08:10:33.045Z,45.76
2022-10-19T08:11:31.072Z,46.08
2022-10-19T08:12:31.181Z,46.89
2022-10-19T08:13:31.053Z,47.70
2022-10-19T08:14:31.036Z,46.73
2022-10-19T08:15:31.018Z,45.12
2022-10-19T08:16:31.037Z,45.44
2022-10-19T08:17:31.001Z,48.50
2022-10-19T08:19:30.998Z,45.60
2022-10-19T08:20:31.030Z,46.25
2022-10-19T08:21:31.159Z,46.08
2022-10-19T08:22:31.044Z,47.86
2022-10-19T08:23:30.994Z,46.25
2022-10-19T08:24:31.071Z,49.31
2022-10-19T08:25:31.018Z,46.25
2022-10-19T08:26:30.995Z,45.76
2022-10-19T08:27:31.032Z,46.41
2022-10-19T08:28:31.001Z,46.08
2022-10-19T08:29:31.742Z,46.41
2022-10-19T08:30:30.996Z,46.25
2022-10-19T08:31:30.966Z,47.37
2022-10-19T08:32:31.005Z,45.92
2022-10-19T08:33:30.999Z,47.05
2022-10-19T08:34:30.927Z,45.76
2022-10-19T08:35:30.935Z,45.76
2022-10-19T08:36:30.954Z,45.60
2022-10-19T08:37:44.168Z,45.76
2022-10-19T08:38:32.944Z,46.73
2022-10-19T08:39:30.925Z,46.89
2022-10-19T08:40:30.904Z,45.92
2022-10-19T08:41:30.898Z,46.73
2022-10-19T08:42:31.037Z,46.08
2022-10-19T08:43:30.999Z,46.25
2022-10-19T08:44:30.875Z,45.92
2022-10-19T08:45:30.913Z,45.60
2022-10-19T08:46:30.892Z,46.08
2022-10-19T08:47:31.245Z,46.57
2022-10-19T08:48:31.111Z,47.37
2022-10-19T08:49:30.872Z,46.73
2022-10-19T08:50:30.916Z,45.92
2022-10-19T08:51:30.901Z,48.82
2022-10-19T08:52:34.209Z,47.37
2022-10-19T08:53:31.923Z,46.57
2022-10-19T08:54:31.199Z,47.05
2022-10-19T08:55:30.956Z,46.41
2022-10-19T08:56:51.149Z,46.57
2022-10-19T08:57:33.239Z,48.18
2022-10-19T08:58:30.917Z,47.37
2022-10-19T08:59:30.894Z,47.21
2022-10-19T09:00:30.929Z,47.37
2022-10-19T09:01:33.849Z,47.53
2022-10-19T09:02:33.216Z,52.05
2022-10-19T09:03:44.027Z,50.60
2022-10-19T09:04:32.831Z,49.15
2022-10-19T09:05:30.856Z,46.25
2022-10-19T09:06:30.839Z,45.92
2022-10-19T09:07:30.831Z,46.57
2022-10-19T09:08:30.864Z,46.08
2022-10-19T09:09:30.820Z,47.70
2022-10-19T09:10:30.831Z,47.86
2022-10-19T09:11:30.857Z,45.92
2022-10-19T09:12:30.848Z,45.60
2022-10-19T09:13:41.425Z,46.08
2022-10-19T09:14:32.814Z,52.69
2022-10-19T09:15:30.784Z,53.82
2022-10-19T09:16:30.770Z,53.98
2022-10-19T09:17:30.797Z,55.59
2022-10-19T09:18:30.740Z,56.07
2022-10-19T09:19:30.778Z,47.86
2022-10-19T09:20:30.839Z,45.28
2022-10-19T09:21:36.834Z,46.25
2022-10-19T09:22:32.003Z,48.66
2022-10-19T09:23:30.752Z,48.82
2022-10-19T09:24:30.746Z,48.50
2022-10-19T09:25:30.738Z,48.50
2022-10-19T09:26:30.719Z,47.70
2022-10-19T09:27:30.675Z,45.92
2022-10-19T09:28:36.487Z,46.08
2022-10-19T09:29:32.672Z,46.73
2022-10-19T09:30:30.640Z,46.41
2022-10-19T09:31:31.895Z,47.21
2022-10-19T09:32:31.916Z,48.18
2022-10-19T09:33:30.653Z,47.53
2022-10-19T09:34:30.677Z,46.57
2022-10-19T09:35:30.601Z,47.05
2022-10-19T09:36:49.382Z,46.73
2022-10-19T09:37:32.633Z,46.41
2022-10-19T09:38:30.594Z,46.73
2022-10-19T09:39:30.579Z,46.25
2022-10-19T09:40:30.626Z,46.57
2022-10-19T09:41:30.566Z,47.70
2022-10-19T09:42:31.782Z,47.86
2022-10-19T09:43:30.582Z,46.57
2022-10-19T09:44:30.562Z,46.41
2022-10-19T09:45:30.635Z,45.76
2022-10-19T09:46:30.678Z,47.70
2022-10-19T09:47:30.597Z,46.41
2022-10-19T09:48:30.534Z,46.25
2022-10-19T09:49:30.545Z,49.47
2022-10-19T09:50:30.550Z,48.82
2022-10-19T09:51:30.529Z,46.57
2022-10-19T09:52:30.675Z,47.86
2022-10-19T09:53:30.508Z,58.81
2022-10-19T09:54:30.476Z,52.37
2022-10-19T09:55:30.550Z,54.79
2022-10-19T09:56:30.486Z,52.53
2022-10-19T09:57:30.476Z,56.88
2022-10-19T09:58:33.004Z,55.59
2022-10-19T09:59:31.458Z,54.95
2022-10-19T10:00:30.474Z,53.50
2022-10-19T10:01:38.092Z,56.88
2022-10-19T10:02:32.864Z,55.59
2022-10-19T10:03:30.420Z,57.36
2022-10-19T10:04:30.415Z,54.62
2022-10-19T10:05:30.449Z,57.04
2022-10-19T10:06:30.426Z,51.56
2022-10-19T10:07:30.450Z,55.27
2022-10-19T10:08:30.449Z,58.01
2022-10-19T10:09:30.403Z,54.30
2022-10-19T10:10:30.720Z,54.62
2022-10-19T10:11:30.391Z,48.82
2022-10-19T10:12:30.774Z,45.44
2022-10-19T10:13:31.329Z,47.37
2022-10-19T10:14:30.380Z,46.89
2022-10-19T10:15:30.323Z,46.57
2022-10-19T10:16:30.327Z,45.60
2022-10-19T10:17:30.499Z,46.73
2022-10-19T10:18:30.322Z,46.73
2022-10-19T10:19:30.347Z,47.05
2022-10-19T10:20:30.320Z,46.89
2022-10-19T10:21:30.294Z,46.89
2022-10-19T10:22:30.290Z,46.89
2022-10-19T10:23:30.320Z,47.05
2022-10-19T10:24:30.336Z,46.73
2022-10-19T10:25:30.283Z,48.02
2022-10-19T10:26:30.291Z,48.18
2022-10-19T10:27:30.253Z,46.57
2022-10-19T10:28:30.239Z,47.37
2022-10-19T10:29:30.224Z,47.05
2022-10-19T10:30:30.265Z,46.08
2022-10-19T10:31:30.280Z,47.05
2022-10-19T10:32:30.200Z,47.53
2022-10-19T10:33:46.041Z,46.57
2022-10-19T10:34:45.362Z,47.21
2022-10-19T10:35:32.208Z,47.37
2022-10-19T10:36:30.177Z,47.37
2022-10-19T10:37:30.157Z,48.34
2022-10-19T10:38:30.148Z,47.70
2022-10-19T10:39:30.146Z,48.02
2022-10-19T10:40:30.160Z,48.18
2022-10-19T10:41:30.147Z,48.18
2022-10-19T10:42:30.138Z,49.63
2022-10-19T10:43:30.148Z,53.50
2022-10-19T10:44:30.113Z,57.04
2022-10-19T10:45:30.128Z,57.52
2022-10-19T10:46:30.158Z,57.04
2022-10-19T10:47:30.080Z,57.69
2022-10-19T10:48:30.070Z,57.20
2022-10-19T10:49:30.049Z,48.50
2022-10-19T10:50:30.060Z,47.21
2022-10-19T10:51:30.070Z,47.37
2022-10-19T10:52:30.042Z,48.34
2022-10-19T10:53:30.052Z,49.15
2022-10-19T10:54:30.010Z,47.05
2022-10-19T10:55:30.013Z,47.70
2022-10-19T10:56:30.044Z,46.73
2022-10-19T10:57:30.003Z,48.18
2022-10-19T10:58:30.443Z,47.70
2022-10-19T10:59:29.992Z,46.08
2022-10-19T11:00:30.013Z,47.53
2022-10-19T11:01:30.168Z,47.21
2022-10-19T11:02:30.009Z,48.34
2022-10-19T11:03:29.977Z,47.70
2022-10-19T11:04:29.963Z,47.05
2022-10-19T11:05:29.942Z,48.50
2022-10-19T11:06:29.949Z,47.53
2022-10-19T11:07:29.951Z,47.37
2022-10-19T11:08:29.951Z,47.37
2022-10-19T11:09:29.929Z,48.50
2022-10-19T11:10:29.904Z,47.70
2022-10-19T11:11:29.890Z,49.47
2022-10-19T11:12:34.282Z,48.50
2022-10-19T11:13:31.882Z,51.08
2022-10-19T11:14:30.884Z,52.53
2022-10-19T11:16:30.868Z,48.98
2022-10-19T11:17:29.864Z,48.82
2022-10-19T11:18:29.863Z,47.53
2022-10-19T11:19:29.845Z,47.53
2022-10-19T11:20:29.833Z,47.86
2022-10-19T11:21:29.819Z,48.82
2022-10-19T11:22:29.897Z,46.25
2022-10-19T11:23:29.848Z,48.82
2022-10-19T11:25:29.795Z,47.21
2022-10-19T11:26:29.795Z,47.21
2022-10-19T11:27:29.777Z,46.41
2022-10-19T11:28:29.778Z,48.34
2022-10-19T11:29:29.811Z,46.89
2022-10-19T11:30:29.808Z,46.73
2022-10-19T11:31:29.796Z,48.18
2022-10-19T11:32:30.759Z,47.21
2022-10-19T11:33:29.812Z,47.21
2022-10-19T11:34:29.737Z,48.50
2022-10-19T11:35:29.964Z,46.41
2022-10-19T11:36:29.708Z,46.57
2022-10-19T11:37:29.757Z,47.86
2022-10-19T11:38:30.411Z,46.57
2022-10-19T11:39:30.705Z,48.82
2022-10-19T11:40:29.690Z,47.86
2022-10-19T11:41:29.703Z,47.70
2022-10-19T11:42:29.705Z,48.98
2022-10-19T11:43:29.759Z,48.02
2022-10-19T11:44:29.660Z,47.70
2022-10-19T11:45:29.654Z,47.70
2022-10-19T11:46:29.665Z,49.15
2022-10-19T11:47:29.696Z,48.18
2022-10-19T11:48:29.669Z,47.05
2022-10-19T11:49:29.659Z,47.86
2022-10-19T11:50:31.967Z,48.98
2022-10-19T11:51:30.696Z,48.18
2022-10-19T11:52:29.637Z,48.82
2022-10-19T11:53:29.593Z,47.05
2022-10-19T11:54:29.643Z,47.05
2022-10-19T11:55:29.589Z,48.50
2022-10-19T11:56:39.119Z,47.21
2022-10-19T11:57:31.820Z,46.41
2022-10-19T11:58:33.831Z,47.37
2022-10-19T11:59:31.606Z,47.21
2022-10-19T12:00:40.144Z,47.05
2022-10-19T12:01:31.554Z,50.92
2022-10-19T12:02:29.626Z,47.86
2022-10-19T12:03:29.585Z,49.15
2022-10-19T12:04:29.519Z,48.34
2022-10-19T12:05:29.510Z,47.86
2022-10-19T12:06:29.500Z,47.21
2022-10-19T12:07:29.486Z,47.86
2022-10-19T12:08:29.531Z,46.08
2022-10-19T12:09:29.501Z,45.60
2022-10-19T12:10:29.475Z,46.89
2022-10-19T12:11:29.494Z,46.25
2022-10-19T12:12:29.460Z,47.37
2022-10-19T12:13:29.461Z,45.76
2022-10-19T12:14:29.435Z,46.73
2022-10-19T12:15:29.449Z,47.70
2022-10-19T12:16:29.442Z,48.66
2022-10-19T12:17:29.408Z,48.82
2022-10-19T12:18:29.470Z,47.37
2022-10-19T12:19:29.453Z,48.34
2022-10-19T12:20:29.496Z,48.18
2022-10-19T12:21:31.793Z,46.73
2022-10-19T12:22:29.401Z,46.25
2022-10-19T12:23:29.403Z,48.82
2022-10-19T12:24:29.432Z,48.82
2022-10-19T12:25:29.371Z,48.50
2022-10-19T12:26:29.346Z,46.73
2022-10-19T12:27:29.461Z,46.25
2022-10-19T12:28:29.339Z,47.37
2022-10-19T12:29:29.365Z,48.34
2022-10-19T12:30:29.338Z,47.86
2022-10-19T12:31:29.327Z,48.82
2022-10-19T12:32:29.340Z,48.82
2022-10-19T12:33:29.305Z,46.89
2022-10-19T12:34:29.392Z,46.57
2022-10-19T12:35:29.301Z,47.21
2022-10-19T12:36:29.274Z,46.41
2022-10-19T12:37:29.322Z,48.66
2022-10-19T12:38:29.262Z,46.57
2022-10-19T12:39:29.269Z,47.53
2022-10-19T12:40:29.268Z,46.41
2022-10-19T12:41:29.329Z,48.50
2022-10-19T12:42:29.262Z,46.89
2022-10-19T12:43:29.294Z,48.82
2022-10-19T12:44:29.231Z,46.73
2022-10-19T12:45:29.214Z,47.37
2022-10-19T12:46:29.198Z,46.73
2022-10-19T12:47:29.223Z,46.25
2022-10-19T12:48:29.253Z,47.70
2022-10-19T12:49:29.289Z,49.31
2022-10-19T12:50:29.211Z,47.05
2022-10-19T12:51:29.246Z,47.21
2022-10-19T12:52:29.164Z,47.05
2022-10-19T12:53:29.213Z,47.37
2022-10-19T12:54:29.139Z,48.02
2022-10-19T12:55:29.165Z,48.02
2022-10-19T12:56:29.143Z,47.37